Latest Weather Observations for Gayndah

IDQ60801

Issued at 8:32 am EST Monday 29 August 2016 (issued every 30 minutes, with the page automatically refreshed every 10 minutes)

About weather observations | Map of weather stations | Latest weather observations for QLD | Other Formats
Station Details ID: 039066 Name: GAYNDAH AIRPORT Lat: -25.62 Lon: 151.62 Height: 110.9 m
Data from the previous 72 hours. | See also: Recent months at Gayndah
Date/Time
EST
Temp
°C
App
Temp
°C
Dew
Point
°C
Rel
Hum
%
Delta-T
°C
Wind Press
QNH
hPa
Press
MSL
hPa
Rain since
9am
mm
Dir  Spd
km/h
Gust
km/h
Spd
kts
Gust
kts
29/08:30am 14.7 14.5 10.3 75 2.3 WSW 2 6 1 3 1026.3 1026.2 0.0
29/08:00am 12.5 12.0 9.5 82 1.5 WSW 2 4 1 2 1026.1 1026.0 0.0
29/07:30am 10.2 9.9 8.5 89 0.8 CALM 0 4 0 2 1025.7 1025.5 0.0
29/07:00am 8.4 7.8 7.6 95 0.4 CALM 0 0 0 0 1025.4 1025.2 0.0
29/06:30am 7.0 5.8 6.4 96 0.3 WNW 2 4 1 2 1024.7 1024.5 0.0
29/06:00am 7.3 6.5 6.7 96 0.3 CALM 0 0 0 0 1024.2 1024.0 0.0
29/05:30am 7.1 6.2 6.0 93 0.5 CALM 0 0 0 0 1023.8 1023.6 0.0
29/05:00am 7.5 6.7 6.3 92 0.5 CALM 0 0 0 0 1023.5 1023.4 0.0
29/04:30am 8.1 7.5 7.2 94 0.4 CALM 0 0 0 0 1023.2 1023.1 0.0
29/04:00am 8.1 7.3 6.7 91 0.6 CALM 0 0 0 0 1022.9 1022.8 0.0
29/03:30am 8.8 8.2 7.3 90 0.7 CALM 0 0 0 0 1022.6 1022.5 0.0
29/03:00am 9.3 8.8 7.9 91 0.7 CALM 0 0 0 0 1022.6 1022.5 0.0
29/02:30am 9.7 9.2 8.0 89 0.8 CALM 0 0 0 0 1022.9 1022.8 0.0
29/02:00am 9.7 9.0 7.1 84 1.2 CALM 0 0 0 0 1023.1 1023.0 0.0
29/01:30am 10.7 10.3 8.1 84 1.3 CALM 0 0 0 0 1023.5 1023.4 0.0
29/01:00am 10.3 9.7 7.5 83 1.3 CALM 0 0 0 0 1023.5 1023.4 0.0
29/12:30am 11.1 10.7 8.3 83 1.4 CALM 0 0 0 0 1023.3 1023.2 0.0
29/12:00am 10.8 10.1 7.1 78 1.8 CALM 0 0 0 0 1023.4 1023.3 0.0
 
Date/Time
EST
Temp
°C
App
Temp
°C
Dew
Point
°C
Rel
Hum
%
Delta-T
°C
Wind Press
QNH
hPa
Press
MSL
hPa
Rain since
9am
mm
Dir  Spd
km/h
Gust
km/h
Spd
kts
Gust
kts
28/11:30pm 11.1 10.4 6.8 75 2.0 CALM 0 0 0 0 1023.8 1023.6 0.0
28/11:00pm 11.0 10.2 6.6 74 2.1 CALM 0 0 0 0 1023.7 1023.5 0.0
28/10:30pm 10.7 9.7 5.7 71 2.3 CALM 0 0 0 0 1023.4 1023.3 0.0
28/10:00pm 11.8 10.1 5.7 66 2.8 SE 4 6 2 3 1023.5 1023.4 0.0
28/09:30pm 13.0 11.7 5.9 62 3.4 W 2 6 1 3 1023.5 1023.4 0.0
28/09:00pm 13.4 12.4 5.8 60 3.6 CALM 0 0 0 0 1023.1 1023.0 0.0
28/08:30pm 13.8 12.1 5.9 59 3.8 NNE 4 4 2 2 1022.7 1022.6 0.0
28/08:00pm 13.1 10.8 4.8 57 3.8 NE 6 9 3 5 1022.5 1022.4 0.0
28/07:30pm 14.5 12.6 4.8 52 4.5 SSE 4 7 2 4 1021.9 1021.8 0.0
28/07:00pm 15.5 13.6 4.8 49 5.0 SE 4 6 2 3 1021.5 1021.4 0.0
28/06:30pm 18.2 16.1 3.7 38 6.8 N 4 6 2 3 1021.2 1021.1 0.0
28/06:00pm 19.6 17.1 3.7 35 7.6 NNW 6 7 3 4 1021.0 1020.9 0.0
28/05:30pm 21.2 18.4 3.4 31 8.5 N 7 9 4 5 1020.6 1020.5 0.0
28/05:00pm 22.8 20.0 3.4 28 9.4 N 7 9 4 5 1020.4 1020.3 0.0
28/04:30pm 23.6 22.1 3.0 26 10.0 CALM 0 4 0 2 1020.4 1020.3 0.0
28/04:00pm 23.8 20.3 3.7 27 9.8 NNW 11 15 6 8 1020.3 1020.2 0.0
28/03:30pm 23.9 21.2 3.8 27 9.9 NE 7 15 4 8 1020.3 1020.2 0.0
28/03:00pm 24.3 21.6 3.6 26 10.2 W 7 20 4 11 1020.4 1020.3 0.0
28/02:30pm 23.5 21.2 2.9 26 9.9 N 4 7 2 4 1020.7 1020.6 0.0
28/02:00pm 23.1 20.0 3.6 28 9.5 NNE 9 17 5 9 1020.9 1020.8 0.0
28/01:30pm 22.7 19.9 3.3 28 9.4 W 7 13 4 7 1021.3 1021.2 0.0
28/01:00pm 22.6 19.5 3.7 29 9.2 SW 9 17 5 9 1021.8 1021.7 0.0
28/12:30pm 22.3 19.7 3.4 29 9.1 NNW 6 9 3 5 1022.3 1022.2 0.0
28/12:00pm 21.8 19.1 3.5 30 8.8 SE 7 15 4 8 1022.9 1022.8 0.0
28/11:30am 20.9 18.3 4.0 33 8.2 S 7 17 4 9 1023.5 1023.4 0.0
28/11:00am 20.4 18.0 4.4 35 7.7 E 6 15 3 8 1024.1 1023.9 0.0
28/10:30am 19.9 18.4 5.2 38 7.2 SW 2 7 1 4 1024.6 1024.4 0.0
28/10:00am 17.8 16.3 5.1 43 6.1 SSW 2 7 1 4 1024.9 1024.7 0.0
28/09:30am 16.3 14.4 5.0 47 5.4 WNW 4 7 2 4 1025.0 1024.8 0.0
28/09:00am 15.3 13.5 5.5 52 4.7 WSW 4 6 2 3 1024.9 1024.7 0.0
28/08:30am 13.0 10.5 4.7 57 3.8 WSW 7 11 4 6 1025.1 1024.9 0.0
28/08:00am 11.4 8.6 5.1 65 2.9 WSW 9 11 5 6 1025.1 1024.9 0.0
28/07:30am 9.9 7.0 4.5 69 2.4 WSW 9 15 5 8 1024.7 1024.5 0.0
28/07:00am 7.7 5.3 4.1 78 1.6 SW 6 9 3 5 1024.4 1024.2 0.0
28/06:30am 5.8 3.1 2.8 81 1.2 WSW 6 7 3 4 1023.9 1023.7 0.0
28/06:00am 6.2 3.4 3.4 82 1.2 WSW 7 13 4 7 1023.3 1023.2 0.0
28/05:30am 5.3 2.6 3.6 89 0.7 WSW 7 11 4 6 1022.8 1022.7 0.0
28/05:00am 4.9 2.6 2.8 86 0.9 WSW 4 6 2 3 1022.3 1022.2 0.0
28/04:30am 4.7 2.7 2.1 83 1.0 SSW 2 4 1 2 1022.2 1022.1 0.0
28/04:00am 5.3 3.3 2.1 80 1.3 SSW 2 6 1 3 1022.4 1022.3 0.0
28/03:30am 8.0 5.4 3.1 71 2.1 W 6 9 3 5 1022.4 1022.3 0.0
28/03:00am 8.7 5.9 3.3 69 2.3 W 7 9 4 5 1022.3 1022.2 0.0
28/02:30am 7.3 5.2 2.0 69 2.2 NW 2 6 1 3 1022.5 1022.4 0.0
28/02:00am 9.8 7.5 2.9 62 3.0 WSW 4 9 2 5 1022.7 1022.6 0.0
28/01:30am 11.1 8.4 3.6 60 3.3 W 7 13 4 7 1022.8 1022.7 0.0
28/01:00am 9.4 7.1 2.7 63 2.9 WNW 4 7 2 4 1022.6 1022.5 0.0
28/12:30am 9.4 7.4 2.5 62 2.9 W 2 7 1 4 1022.6 1022.5 0.0
28/12:00am 9.9 7.3 3.0 62 3.0 WSW 6 11 3 6 1022.6 1022.5 0.0
 
Date/Time
EST
Temp
°C
App
Temp
°C
Dew
Point
°C
Rel
Hum
%
Delta-T
°C
Wind Press
QNH
hPa
Press
MSL
hPa
Rain since
9am
mm
Dir  Spd
km/h
Gust
km/h
Spd
kts
Gust
kts
27/11:30pm 9.3 7.3 2.4 62 2.9 WNW 2 4 1 2 1022.6 1022.5 0.0
27/11:00pm 10.4 8.1 2.5 58 3.4 WSW 4 6 2 3 1022.7 1022.6 0.0
27/10:30pm 10.9 8.9 2.2 55 3.7 SSW 2 4 1 2 1022.7 1022.6 0.0
27/10:00pm 11.3 8.3 2.3 54 3.9 WSW 7 9 4 5 1022.7 1022.6 0.0
27/09:30pm 11.3 7.9 2.1 53 4.0 SW 9 9 5 5 1022.5 1022.4 0.0
27/09:00pm 11.7 8.4 2.2 52 4.1 SW 9 9 5 5 1022.4 1022.3 0.0
27/08:30pm 12.4 9.0 2.0 49 4.5 SW 9 11 5 6 1022.1 1022.0 0.0
27/08:00pm 12.9 9.5 1.9 47 4.8 SW 9 9 5 5 1021.8 1021.7 0.0
27/07:30pm 13.4 10.3 1.4 44 5.2 SW 7 9 4 5 1021.5 1021.4 0.0
27/07:00pm 13.9 10.7 0.9 41 5.6 SW 7 9 4 5 1021.0 1020.9 0.0
27/06:30pm 15.3 11.6 -0.1 35 6.5 SW 9 13 5 7 1020.7 1020.6 0.0
27/06:00pm 16.8 12.7 -0.4 31 7.3 SSW 11 17 6 9 1020.3 1020.2 0.0
27/05:30pm 17.9 12.9 -1.3 27 8.1 SSW 15 24 8 13 1019.9 1019.8 0.0
27/05:00pm 18.9 13.9 -1.5 25 8.7 SSW 15 24 8 13 1019.7 1019.6 0.0
27/04:30pm 19.4 14.3 -1.7 24 9.0 SSW 15 28 8 15 1019.2 1019.1 0.0
27/04:00pm 20.0 14.2 -1.7 23 9.3 SSW 19 30 10 16 1019.0 1018.9 0.0
27/03:30pm 20.7 14.9 -1.8 22 9.7 SW 19 28 10 15 1018.9 1018.8 0.0
27/03:00pm 20.2 15.0 -2.8 21 9.6 SW 15 28 8 15 1018.9 1018.8 0.0
27/02:30pm 20.8 16.0 -2.3 21 9.9 SSW 13 28 7 15 1018.9 1018.8 0.0
27/02:00pm 19.6 13.6 -1.5 24 9.0 SW 20 30 11 16 1018.9 1018.8 0.0
27/01:30pm 19.4 13.6 -1.7 24 9.0 SW 19 28 10 15 1019.3 1019.2 0.0
27/01:00pm 19.7 14.6 -2.0 23 9.2 SW 15 30 8 16 1019.6 1019.5 0.0
27/12:30pm 19.0 14.2 -2.6 23 9.0 SSW 13 24 7 13 1020.3 1020.2 0.0
27/12:00pm 18.4 13.3 -2.0 25 8.5 SW 15 28 8 15 1020.9 1020.8 0.0
27/11:30am 17.6 12.2 -1.1 28 7.9 SSW 17 26 9 14 1021.3 1021.2 0.0
27/11:00am 17.1 11.4 -1.1 29 7.7 SW 19 32 10 17 1021.6 1021.5 0.0
27/10:30am 16.8 10.1 -1.3 29 7.6 SSW 24 35 13 19 1022.0 1021.9 0.0
27/10:00am 15.8 10.2 1.2 37 6.4 SSW 20 32 11 17 1022.3 1022.2 0.0
27/09:30am 14.5 9.8 3.0 46 5.2 SW 17 24 9 13 1022.5 1022.4 0.0
27/09:00am 12.7 8.4 3.4 53 4.1 WSW 15 22 8 12 1022.5 1022.4 -
27/08:30am 10.9 6.1 2.7 57 3.6 WSW 17 22 9 12 1022.5 1022.4 -
27/08:00am 9.4 5.8 2.9 64 2.8 WSW 11 19 6 10 1022.5 1022.4 -
27/07:30am 7.5 3.8 2.4 70 2.1 WSW 11 15 6 8 1022.3 1022.2 -
27/07:00am 6.3 3.3 2.2 75 1.7 WSW 7 11 4 6 1021.8 1021.7 -
27/06:30am 4.3 0.8 1.3 81 1.2 WSW 9 11 5 6 1021.4 1021.3 -
27/06:00am 2.8 -0.1 1.3 90 0.6 SW 6 7 3 4 1021.2 1021.1 -
27/05:30am 2.8 -0.1 1.5 91 0.5 SW 6 9 3 5 1020.9 1020.8 -
27/05:00am 2.3 0.0 0.5 88 0.7 S 2 4 1 2 1020.6 1020.5 -
27/04:30am 2.9 1.0 0.8 86 0.8 CALM 0 0 0 0 1020.4 1020.3 -
27/04:00am 3.1 1.3 1.3 88 0.7 CALM 0 0 0 0 1020.2 1020.1 -
27/03:30am 3.6 1.8 1.3 85 0.9 CALM 0 0 0 0 1019.9 1019.8 -
27/03:00am 3.8 - 1.0 82 1.1 - - - - - 1020.1 1020.0 -
27/02:30am 4.8 3.1 1.7 80 1.2 CALM 0 0 0 0 1019.9 1019.8 0.0
27/02:00am 5.3 3.1 0.9 73 1.7 SW 2 6 1 3 1019.9 1019.8 0.0
27/01:30am 6.3 4.1 1.0 69 2.1 SW 2 4 1 2 1020.1 1020.0 0.0
27/01:00am 6.9 5.1 1.0 66 2.4 CALM 0 2 0 1 1020.2 1020.1 0.0
27/12:30am 9.0 6.1 1.4 59 3.1 SW 6 9 3 5 1020.0 1019.9 0.0
27/12:00am 9.3 5.5 1.5 58 3.2 SW 11 17 6 9 1019.9 1019.8 0.0
 
Date/Time
EST
Temp
°C
App
Temp
°C
Dew
Point
°C
Rel
Hum
%
Delta-T
°C
Wind Press
QNH
hPa
Press
MSL
hPa
Rain since
9am
mm
Dir  Spd
km/h
Gust
km/h
Spd
kts
Gust
kts
26/11:30pm 9.1 5.6 1.0 57 3.3 WSW 9 13 5 7 1019.9 1019.8 0.0
26/11:00pm 9.9 6.0 1.0 54 3.7 SW 11 13 6 7 1019.9 1019.8 0.0
26/10:30pm 10.4 6.4 0.7 51 4.0 SW 11 13 6 7 1020.0 1019.9 0.0
26/10:00pm 11.5 7.1 0.6 47 4.5 SW 13 19 7 10 1020.0 1019.9 0.0
26/09:30pm 12.1 7.7 0.5 45 4.8 SW 13 19 7 10 1019.7 1019.6 0.0
26/09:00pm 11.8 7.8 0.6 46 4.7 SW 11 17 6 9 1019.5 1019.4 0.0
26/08:30pm 12.6 8.6 0.4 43 5.1 SW 11 15 6 8 1019.3 1019.2 0.0
26/08:00pm 14.4 8.8 -0.1 37 6.1 SSW 19 28 10 15 1019.2 1019.1 0.0
26/07:30pm 14.6 9.0 0.1 37 6.1 SSW 19 28 10 15 1018.6 1018.5 0.0
26/07:00pm 14.9 10.0 -0.4 35 6.4 SW 15 22 8 12 1018.2 1018.1 0.0
26/06:30pm 15.5 10.9 -0.7 33 6.8 SSW 13 19 7 10 1017.5 1017.3 0.0
26/06:00pm 16.2 12.4 -0.9 31 7.2 SW 9 15 5 8 1017.0 1016.8 0.0
26/05:30pm 17.3 12.7 -0.9 29 7.7 SSW 13 20 7 11 1016.6 1016.4 0.0
26/05:00pm 17.8 13.2 -1.4 27 8.1 SW 13 28 7 15 1016.3 1016.1 0.0
26/04:30pm 18.3 12.9 -1.5 26 8.4 SSW 17 24 9 13 1015.8 1015.6 0.0
26/04:00pm 18.1 12.7 -1.2 27 8.2 SW 17 26 9 14 1015.5 1015.3 0.0
26/03:30pm 18.9 13.5 -1.5 25 8.7 SSW 17 28 9 15 1015.3 1015.1 0.0
26/03:00pm 18.6 12.3 -0.7 27 8.3 SW 22 30 12 16 1015.0 1014.8 0.0
26/02:30pm 19.0 13.2 -0.4 27 8.5 SSW 20 35 11 19 1014.9 1014.7 0.0
26/02:00pm 20.0 14.2 -1.7 23 9.3 SSW 19 33 10 18 1015.2 1015.0 0.0
26/01:30pm 19.1 14.1 -1.4 25 8.8 SW 15 30 8 16 1015.4 1015.2 0.0
26/01:00pm 19.4 14.3 -1.7 24 9.0 SSW 15 28 8 15 1015.4 1015.2 0.0
26/12:30pm 19.1 13.1 -1.9 24 8.9 SW 20 32 11 17 1015.8 1015.6 0.0
26/12:00pm 19.2 14.0 0.3 28 8.4 SSW 17 28 9 15 1016.5 1016.3 0.0
26/11:30am 18.0 12.3 0.6 31 7.7 SSW 20 32 11 17 1016.9 1016.7 0.0
26/11:00am 17.2 11.5 0.8 33 7.2 SSW 20 30 11 16 1017.3 1017.1 0.0
26/10:30am 16.9 11.1 0.1 32 7.3 SSW 20 33 11 18 1018.0 1017.8 0.0
26/10:00am 16.4 10.3 0.5 34 6.9 SW 22 30 12 16 1018.3 1018.2 0.0
26/09:30am 15.0 8.5 0.4 37 6.3 S 24 39 13 21 1018.5 1018.4 0.0
26/09:00am 15.0 9.6 2.2 42 5.7 SSW 20 35 11 19 1018.8 1018.7 0.0

Other Formats:

Comma delimited format used in spreadsheet applications
http://www.bom.gov.au/fwo/IDQ60801/IDQ60801.95543.axf

JavaScript Object Notation format (JSON) in row-major order
http://www.bom.gov.au/fwo/IDQ60801/IDQ60801.95543.json